createdAt,value
2016-05-23T00:00:41.715Z,21.71
2016-05-23T00:01:41.547Z,21.7
2016-05-23T00:02:41.690Z,21.67
2016-05-23T00:03:41.520Z,21.63
2016-05-23T00:04:41.664Z,21.68
2016-05-23T00:05:41.651Z,21.68
2016-05-23T00:06:41.638Z,21.61
2016-05-23T00:07:42.031Z,21.66
2016-05-23T00:08:41.612Z,21.64
2016-05-23T00:09:41.600Z,21.63
2016-05-23T00:10:41.586Z,21.74
2016-05-23T00:11:41.589Z,21.61
2016-05-23T00:12:41.561Z,21.61
2016-05-23T00:13:41.547Z,21.61
2016-05-23T00:14:41.534Z,21.66
2016-05-23T00:15:42.052Z,21.66
2016-05-23T00:16:41.541Z,21.61
2016-05-23T00:17:41.496Z,21.61
2016-05-23T00:18:41.482Z,21.68
2016-05-23T00:19:41.330Z,21.66
2016-05-23T00:20:41.301Z,21.63
2016-05-23T00:21:41.444Z,21.64
2016-05-23T00:22:41.274Z,21.64
2016-05-23T00:23:42.028Z,21.67
2016-05-23T00:24:41.421Z,21.59
2016-05-23T00:25:41.392Z,21.58
2016-05-23T00:26:41.396Z,21.61
2016-05-23T00:27:41.366Z,21.71
2016-05-23T00:28:41.370Z,21.71
2016-05-23T00:29:41.356Z,21.68
2016-05-23T00:30:41.187Z,21.7
2016-05-23T00:31:41.331Z,21.7
2016-05-23T00:32:41.317Z,21.74
2016-05-23T00:33:41.304Z,21.67
2016-05-23T00:34:41.292Z,21.64
2016-05-23T00:35:41.106Z,21.68
2016-05-23T00:36:41.266Z,21.67
2016-05-23T00:37:41.253Z,21.66
2016-05-23T00:38:41.256Z,21.7
2016-05-23T00:39:42.039Z,21.68
2016-05-23T00:40:41.214Z,21.66
2016-05-23T00:41:41.200Z,21.73
2016-05-23T00:42:41.172Z,21.71
2016-05-23T00:43:41.175Z,21.71
2016-05-23T00:44:41.897Z,21.73
2016-05-23T00:45:41.024Z,21.75
2016-05-23T00:46:41.136Z,21.75
2016-05-23T00:47:41.327Z,21.73
2016-05-23T00:48:41.110Z,21.67
2016-05-23T00:49:41.097Z,21.63
2016-05-23T00:50:40.929Z,21.71
2016-05-23T00:51:41.088Z,21.73
2016-05-23T00:52:41.074Z,21.7
2016-05-23T00:53:41.045Z,21.73
2016-05-23T00:54:40.877Z,21.68
2016-05-23T00:55:41.332Z,21.66
2016-05-23T00:56:41.022Z,21.7
2016-05-23T00:57:40.994Z,21.68
2016-05-23T00:58:40.981Z,21.71
2016-05-23T00:59:41.140Z,21.7
2016-05-23T01:00:40.970Z,21.68
2016-05-23T01:01:40.943Z,21.7
2016-05-23T01:02:40.945Z,21.67
2016-05-23T01:03:41.322Z,21.7
2016-05-23T01:04:40.748Z,21.68
2016-05-23T01:05:40.906Z,21.67
2016-05-23T01:06:40.893Z,21.73
2016-05-23T01:07:40.880Z,21.68
2016-05-23T01:08:40.852Z,21.73
2016-05-23T01:09:40.698Z,21.7
2016-05-23T01:10:40.997Z,21.7
2016-05-23T01:11:40.828Z,21.7
2016-05-23T01:12:40.691Z,21.7
2016-05-23T01:13:40.803Z,21.71
2016-05-23T01:14:40.696Z,21.67
2016-05-23T01:15:40.777Z,21.7
2016-05-23T01:16:40.780Z,21.71
2016-05-23T01:17:40.766Z,21.66
2016-05-23T01:18:40.800Z,21.61
2016-05-23T01:19:40.725Z,21.58
2016-05-23T01:20:40.556Z,21.61
2016-05-23T01:21:40.543Z,21.67
2016-05-23T01:22:40.546Z,21.68
2016-05-23T01:23:40.532Z,21.61
2016-05-23T01:24:40.660Z,21.63
2016-05-23T01:25:40.663Z,21.67
2016-05-23T01:26:40.993Z,21.67
2016-05-23T01:27:40.466Z,21.66
2016-05-23T01:28:40.624Z,21.67
2016-05-23T01:29:40.642Z,21.66
2016-05-23T01:30:40.582Z,21.7
2016-05-23T01:31:40.585Z,21.7
2016-05-23T01:32:40.573Z,21.63
2016-05-23T01:33:40.544Z,21.63
2016-05-23T01:34:40.937Z,21.68
2016-05-23T01:35:40.518Z,21.66
2016-05-23T01:36:40.505Z,21.68
2016-05-23T01:37:40.508Z,21.71
2016-05-23T01:38:40.494Z,21.71
2016-05-23T01:39:40.482Z,21.74
2016-05-23T01:40:40.469Z,21.7
2016-05-23T01:41:40.300Z,21.66
2016-05-23T01:42:40.834Z,21.73
2016-05-23T01:43:40.430Z,21.7
2016-05-23T01:44:40.464Z,21.73
2016-05-23T01:45:40.405Z,21.74
2016-05-23T01:46:40.391Z,21.75
2016-05-23T01:47:40.269Z,21.73
2016-05-23T01:48:40.366Z,21.68
2016-05-23T01:49:40.368Z,21.67
2016-05-23T01:50:41.011Z,21.77
2016-05-23T01:51:40.343Z,21.7
2016-05-23T01:52:40.313Z,21.75
2016-05-23T01:53:40.301Z,21.75
2016-05-23T01:54:40.288Z,21.74
2016-05-23T01:55:40.275Z,21.79
2016-05-23T01:56:40.262Z,21.7
2016-05-23T01:57:40.249Z,21.7
2016-05-23T01:58:40.299Z,21.79
2016-05-23T01:59:40.254Z,21.75
2016-05-23T02:00:40.226Z,21.74
2016-05-23T02:01:40.197Z,21.67
2016-05-23T02:02:40.044Z,21.75
2016-05-23T02:03:39.875Z,21.73
2016-05-23T02:04:40.158Z,21.71
2016-05-23T02:05:40.162Z,21.79
2016-05-23T02:06:40.304Z,21.75
2016-05-23T02:07:39.963Z,21.73
2016-05-23T02:08:40.123Z,21.73
2016-05-23T02:09:40.110Z,21.66
2016-05-23T02:10:40.097Z,21.73
2016-05-23T02:11:40.084Z,21.73
2016-05-23T02:12:40.070Z,21.79
2016-05-23T02:13:40.041Z,21.66
2016-05-23T02:14:41.014Z,21.68
2016-05-23T02:15:39.875Z,21.67
2016-05-23T02:16:40.019Z,21.7
2016-05-23T02:17:40.021Z,21.66
2016-05-23T02:18:39.993Z,21.68
2016-05-23T02:19:39.980Z,21.66
2016-05-23T02:20:39.811Z,21.67
2016-05-23T02:21:39.955Z,21.7
2016-05-23T02:22:40.347Z,21.67
2016-05-23T02:23:39.944Z,21.58
2016-05-23T02:24:39.932Z,21.66
2016-05-23T02:25:39.902Z,21.63
2016-05-23T02:26:39.905Z,21.68
2016-05-23T02:27:39.877Z,21.64
2016-05-23T02:28:39.879Z,21.61
2016-05-23T02:29:40.116Z,21.67
2016-05-23T02:30:40.291Z,21.68
2016-05-23T02:31:39.840Z,21.71
2016-05-23T02:32:39.860Z,21.63
2016-05-23T02:33:39.831Z,21.67
2016-05-23T02:34:39.646Z,21.53
2016-05-23T02:35:39.773Z,21.66
2016-05-23T02:36:39.791Z,21.68
2016-05-23T02:37:39.763Z,21.64
2016-05-23T02:38:39.750Z,21.63
2016-05-23T02:39:39.737Z,21.67
2016-05-23T02:40:39.724Z,21.67
2016-05-23T02:41:39.696Z,21.66
2016-05-23T02:42:39.698Z,21.64
2016-05-23T02:43:39.686Z,21.58
2016-05-23T02:44:39.516Z,21.63
2016-05-23T02:45:39.691Z,21.59
2016-05-23T02:46:39.647Z,21.67
2016-05-23T02:47:39.477Z,21.61
2016-05-23T02:48:39.621Z,21.58
2016-05-23T02:49:39.608Z,21.66
2016-05-23T02:50:39.595Z,21.63
2016-05-23T02:51:39.582Z,21.68
2016-05-23T02:52:39.569Z,21.56
2016-05-23T02:53:39.415Z,21.55
2016-05-23T02:54:39.387Z,21.61
2016-05-23T02:55:39.546Z,21.63
2016-05-23T02:56:39.518Z,21.68
2016-05-23T02:57:39.349Z,21.53
2016-05-23T02:58:39.491Z,21.56
2016-05-23T02:59:39.775Z,21.61
2016-05-23T03:00:39.481Z,21.66
2016-05-23T03:01:39.468Z,21.58
2016-05-23T03:02:39.440Z,21.63
2016-05-23T03:03:39.426Z,21.61
2016-05-23T03:04:39.429Z,21.64
2016-05-23T03:05:39.431Z,21.56
2016-05-23T03:06:39.403Z,21.64
2016-05-23T03:07:39.390Z,21.64
2016-05-23T03:08:39.378Z,21.66
2016-05-23T03:09:39.364Z,21.66
2016-05-23T03:10:39.336Z,21.59
2016-05-23T03:11:39.323Z,21.68
2016-05-23T03:12:39.311Z,21.61
2016-05-23T03:13:39.328Z,21.59
2016-05-23T03:14:39.706Z,21.64
2016-05-23T03:15:39.131Z,21.64
2016-05-23T03:16:39.275Z,21.53
2016-05-23T03:17:39.261Z,21.58
2016-05-23T03:18:39.247Z,21.59
2016-05-23T03:19:39.330Z,21.68
2016-05-23T03:20:39.222Z,21.63
2016-05-23T03:21:39.241Z,21.63
2016-05-23T03:22:39.197Z,21.56
2016-05-23T03:23:39.199Z,21.63
2016-05-23T03:24:39.014Z,21.63
2016-05-23T03:25:39.174Z,21.59
2016-05-23T03:26:39.005Z,21.61
2016-05-23T03:27:39.382Z,21.61
2016-05-23T03:28:39.134Z,21.7
2016-05-23T03:29:39.137Z,21.66
2016-05-23T03:30:39.109Z,21.63
2016-05-23T03:31:38.924Z,21.66
2016-05-23T03:32:39.067Z,21.58
2016-05-23T03:33:39.070Z,21.67
2016-05-23T03:34:39.040Z,21.63
2016-05-23T03:35:39.341Z,21.67
2016-05-23T03:36:38.875Z,21.67
2016-05-23T03:37:38.862Z,21.58
2016-05-23T03:38:39.005Z,21.58
2016-05-23T03:39:38.992Z,21.63
2016-05-23T03:40:38.979Z,21.68
2016-05-23T03:41:38.967Z,21.63
2016-05-23T03:42:38.937Z,21.64
2016-05-23T03:43:39.394Z,21.64
2016-05-23T03:44:38.772Z,21.64
2016-05-23T03:45:38.930Z,21.66
2016-05-23T03:46:38.902Z,21.61
2016-05-23T03:47:38.872Z,21.68
2016-05-23T03:48:38.876Z,21.58
2016-05-23T03:49:38.863Z,21.68
2016-05-23T03:50:38.694Z,21.64
2016-05-23T03:51:39.400Z,21.61
2016-05-23T03:52:38.824Z,21.66
2016-05-23T03:53:38.811Z,21.7
2016-05-23T03:54:38.799Z,21.63
2016-05-23T03:55:38.645Z,21.67
2016-05-23T03:56:38.788Z,21.58
2016-05-23T03:57:38.775Z,21.7
2016-05-23T03:58:38.762Z,21.59
2016-05-23T03:59:39.405Z,21.59
2016-05-23T04:00:38.721Z,21.61
2016-05-23T04:01:38.707Z,21.59
2016-05-23T04:02:38.710Z,21.61
2016-05-23T04:03:38.682Z,21.66
2016-05-23T04:04:38.685Z,21.64
2016-05-23T04:05:38.671Z,21.63
2016-05-23T04:06:38.659Z,21.56
2016-05-23T04:07:38.630Z,21.7
2016-05-23T04:08:38.633Z,21.63
2016-05-23T04:09:38.604Z,21.59
2016-05-23T04:10:38.435Z,21.67
2016-05-23T04:11:38.594Z,21.66
2016-05-23T04:12:38.581Z,21.58
2016-05-23T04:13:38.568Z,21.64
2016-05-23T04:14:38.524Z,21.64
2016-05-23T04:15:38.683Z,21.56
2016-05-23T04:16:38.529Z,21.58
2016-05-23T04:17:38.517Z,21.66
2016-05-23T04:18:38.347Z,21.58
2016-05-23T04:19:38.334Z,21.66
2016-05-23T04:20:38.478Z,21.71
2016-05-23T04:21:38.308Z,21.61
2016-05-23T04:22:38.295Z,21.61
2016-05-23T04:23:38.689Z,21.64
2016-05-23T04:24:38.269Z,21.64
2016-05-23T04:25:38.413Z,21.73
2016-05-23T04:26:38.416Z,21.58
2016-05-23T04:27:38.403Z,21.63
2016-05-23T04:28:38.374Z,21.67
2016-05-23T04:29:38.643Z,21.63
2016-05-23T04:30:38.348Z,21.61
2016-05-23T04:31:38.694Z,21.58
2016-05-23T04:32:38.321Z,21.63
2016-05-23T04:33:38.309Z,21.66
2016-05-23T04:34:38.312Z,21.56
2016-05-23T04:35:38.284Z,21.55
2016-05-23T04:36:38.302Z,21.55
2016-05-23T04:37:38.257Z,21.36
2016-05-23T04:38:38.307Z,21.28
2016-05-23T04:39:38.701Z,21.22
2016-05-23T04:40:38.218Z,21.27
2016-05-23T04:41:38.221Z,21.26
2016-05-23T04:42:38.193Z,21.19
2016-05-23T04:43:38.196Z,21.18
2016-05-23T04:44:37.886Z,21.13
2016-05-23T04:45:38.014Z,21.21
2016-05-23T04:46:38.314Z,21.11
2016-05-23T04:47:38.144Z,21.06
2016-05-23T04:48:38.131Z,21.06
2016-05-23T04:49:38.118Z,21.05
2016-05-23T04:50:37.965Z,21.03
2016-05-23T04:51:38.093Z,21.01
2016-05-23T04:52:38.079Z,20.98
2016-05-23T04:53:38.083Z,21
2016-05-23T04:54:38.350Z,21.05
2016-05-23T04:55:37.884Z,20.97
2016-05-23T04:56:38.028Z,20.97
2016-05-23T04:57:38.031Z,21
2016-05-23T04:58:38.002Z,20.94
2016-05-23T04:59:37.863Z,20.97
2016-05-23T05:00:37.977Z,21.01
2016-05-23T05:01:37.963Z,21
2016-05-23T05:02:38.357Z,20.97
2016-05-23T05:03:37.937Z,20.98
2016-05-23T05:04:37.783Z,20.98
2016-05-23T05:05:37.927Z,21.01
2016-05-23T05:06:37.743Z,21
2016-05-23T05:07:37.901Z,20.98
2016-05-23T05:08:37.873Z,20.93
2016-05-23T05:09:37.860Z,20.83
2016-05-23T05:10:38.346Z,20.97
2016-05-23T05:11:37.834Z,20.88
2016-05-23T05:12:37.821Z,21.05
2016-05-23T05:13:37.807Z,21.01
2016-05-23T05:14:38.342Z,20.93
2016-05-23T05:15:37.812Z,20.83
2016-05-23T05:16:37.770Z,20.83
2016-05-23T05:17:37.772Z,20.91
2016-05-23T05:18:38.400Z,20.9
2016-05-23T05:19:37.730Z,20.94
2016-05-23T05:20:37.577Z,20.85
2016-05-23T05:21:37.720Z,20.85
2016-05-23T05:22:37.722Z,20.97
2016-05-23T05:23:37.695Z,21
2016-05-23T05:24:37.681Z,20.85
2016-05-23T05:25:37.511Z,20.88
2016-05-23T05:26:38.406Z,20.94
2016-05-23T05:27:37.642Z,20.87
2016-05-23T05:28:37.630Z,20.73
2016-05-23T05:29:38.070Z,20.76
2016-05-23T05:30:37.603Z,20.68
2016-05-23T05:31:37.435Z,20.82
2016-05-23T05:32:37.577Z,20.85
2016-05-23T05:33:37.565Z,20.88
2016-05-23T05:34:37.599Z,20.96
2016-05-23T05:35:37.539Z,20.87
2016-05-23T05:36:39.869Z,20.85
2016-05-23T05:37:37.372Z,20.85
2016-05-23T05:38:37.344Z,20.91
2016-05-23T05:39:37.488Z,20.87
2016-05-23T05:40:37.474Z,20.88
2016-05-23T05:41:37.462Z,20.91
2016-05-23T05:42:37.668Z,20.94
2016-05-23T05:43:37.435Z,20.9
2016-05-23T05:44:37.423Z,20.87
2016-05-23T05:45:37.425Z,20.9
2016-05-23T05:46:37.240Z,20.9
2016-05-23T05:47:37.399Z,20.85
2016-05-23T05:48:37.370Z,20.87
2016-05-23T05:49:37.358Z,20.88
2016-05-23T05:50:37.501Z,20.9
2016-05-23T05:51:37.176Z,20.91
2016-05-23T05:52:37.319Z,20.88
2016-05-23T05:53:37.306Z,20.87
2016-05-23T05:54:37.137Z,20.85
2016-05-23T05:55:37.295Z,20.85
2016-05-23T05:56:37.267Z,20.87
2016-05-23T05:57:37.301Z,20.87
2016-05-23T05:58:38.414Z,20.88
2016-05-23T05:59:37.291Z,20.83
2016-05-23T06:00:37.216Z,20.83
2016-05-23T06:01:37.062Z,20.9
2016-05-23T06:02:37.190Z,20.9
2016-05-23T06:03:37.177Z,20.87
2016-05-23T06:04:37.164Z,20.87
2016-05-23T06:05:37.292Z,20.88
2016-05-23T06:06:37.138Z,20.88
2016-05-23T06:07:37.140Z,20.9
2016-05-23T06:08:36.971Z,20.87
2016-05-23T06:09:37.099Z,20.91
2016-05-23T06:10:37.118Z,20.83
2016-05-23T06:11:37.073Z,20.93
2016-05-23T06:12:37.076Z,20.88
2016-05-23T06:13:37.312Z,20.83
2016-05-23T06:14:37.066Z,20.98
2016-05-23T06:15:37.021Z,21
2016-05-23T06:16:37.009Z,20.94
2016-05-23T06:17:37.012Z,20.87
2016-05-23T06:18:36.843Z,20.91
2016-05-23T06:19:36.829Z,20.87
2016-05-23T06:20:36.973Z,20.82
2016-05-23T06:21:37.210Z,20.88
2016-05-23T06:22:36.931Z,20.87
2016-05-23T06:23:36.933Z,20.9
2016-05-23T06:24:37.202Z,20.9
2016-05-23T06:25:36.892Z,20.85
2016-05-23T06:26:36.895Z,20.85
2016-05-23T06:27:36.710Z,20.88
2016-05-23T06:28:36.853Z,20.83
2016-05-23T06:29:37.466Z,20.87
2016-05-23T06:30:36.828Z,20.83
2016-05-23T06:31:36.846Z,20.85
2016-05-23T06:32:36.802Z,20.82
2016-05-23T06:33:36.789Z,20.85
2016-05-23T06:34:36.792Z,20.87
2016-05-23T06:35:36.763Z,20.87
2016-05-23T06:36:36.766Z,20.78
2016-05-23T06:37:37.300Z,20.83
2016-05-23T06:38:36.741Z,20.87
2016-05-23T06:39:36.585Z,20.87
2016-05-23T06:40:36.699Z,20.76
2016-05-23T06:41:36.685Z,20.79
2016-05-23T06:42:36.688Z,20.78
2016-05-23T06:43:36.503Z,20.85
2016-05-23T06:44:36.646Z,20.81
2016-05-23T06:45:37.196Z,20.82
2016-05-23T06:46:36.637Z,20.69
2016-05-23T06:47:36.608Z,20.76
2016-05-23T06:48:36.621Z,20.73
2016-05-23T06:49:36.477Z,20.81
2016-05-23T06:50:36.505Z,20.83
2016-05-23T06:51:36.673Z,20.78
2016-05-23T06:52:36.530Z,20.82
2016-05-23T06:53:37.478Z,20.81
2016-05-23T06:54:36.521Z,20.78
2016-05-23T06:55:36.674Z,20.79
2016-05-23T06:56:36.671Z,20.83
2016-05-23T06:57:36.667Z,20.78
2016-05-23T06:58:36.501Z,20.82
2016-05-23T06:59:36.803Z,20.87
2016-05-23T07:00:36.482Z,20.83
2016-05-23T07:01:36.830Z,20.81
2016-05-23T07:02:36.633Z,20.79
2016-05-23T07:03:36.434Z,20.82
2016-05-23T07:04:36.594Z,20.85
2016-05-23T07:05:36.582Z,20.76
2016-05-23T07:06:36.414Z,20.81
2016-05-23T07:07:36.558Z,20.79
2016-05-23T07:08:36.546Z,20.87
2016-05-23T07:09:36.799Z,20.85
2016-05-23T07:10:36.522Z,20.79
2016-05-23T07:11:36.352Z,20.71
2016-05-23T07:12:36.495Z,20.83
2016-05-23T07:13:36.484Z,20.83
2016-05-23T07:14:36.174Z,20.78
2016-05-23T07:15:36.457Z,20.75
2016-05-23T07:16:37.571Z,20.79
2016-05-23T07:17:36.839Z,20.73
2016-05-23T07:18:36.263Z,20.76
2016-05-23T07:19:36.391Z,20.73
2016-05-23T07:20:36.238Z,20.71
2016-05-23T07:21:36.382Z,20.81
2016-05-23T07:22:36.369Z,20.73
2016-05-23T07:23:36.199Z,20.75
2016-05-23T07:24:36.343Z,20.76
2016-05-23T07:25:36.329Z,20.78
2016-05-23T07:26:36.332Z,20.75
2016-05-23T07:27:36.303Z,20.79
2016-05-23T07:28:36.290Z,20.83
2016-05-23T07:29:36.121Z,20.83
2016-05-23T07:30:36.265Z,20.87
2016-05-23T07:31:36.095Z,20.81
2016-05-23T07:32:36.239Z,20.79
2016-05-23T07:33:36.225Z,20.83
2016-05-23T07:34:35.901Z,20.79
2016-05-23T07:35:36.200Z,20.76
2016-05-23T07:36:36.187Z,20.76
2016-05-23T07:37:36.175Z,20.75
2016-05-23T07:38:36.162Z,20.76
2016-05-23T07:39:36.164Z,20.75
2016-05-23T07:40:36.136Z,20.82
2016-05-23T07:41:35.982Z,20.75
2016-05-23T07:42:36.110Z,20.78
2016-05-23T07:43:36.096Z,20.73
2016-05-23T07:44:36.350Z,20.78
2016-05-23T07:45:36.086Z,20.76
2016-05-23T07:46:36.057Z,20.79
2016-05-23T07:47:36.044Z,20.75
2016-05-23T07:48:36.032Z,20.75
2016-05-23T07:49:35.862Z,20.73
2016-05-23T07:50:36.022Z,20.73
2016-05-23T07:51:35.993Z,20.72
2016-05-23T07:52:35.980Z,20.76
2016-05-23T07:53:35.998Z,20.82
2016-05-23T07:54:35.954Z,20.76
2016-05-23T07:55:35.941Z,20.82
2016-05-23T07:56:35.929Z,20.82
2016-05-23T07:57:35.915Z,20.82
2016-05-23T07:58:35.903Z,20.87
2016-05-23T07:59:35.576Z,20.76
2016-05-23T08:00:35.721Z,20.75
2016-05-23T08:01:35.848Z,20.72
2016-05-23T08:02:35.851Z,20.85
2016-05-23T08:03:35.837Z,20.82
2016-05-23T08:04:35.825Z,20.75
2016-05-23T08:05:35.812Z,20.79
2016-05-23T08:06:35.846Z,20.78
2016-05-23T08:07:35.786Z,20.82
2016-05-23T08:08:35.773Z,20.79
2016-05-23T08:09:35.448Z,20.79
2016-05-23T08:10:35.436Z,20.73
2016-05-23T08:11:35.734Z,20.75
2016-05-23T08:12:35.722Z,20.69
2016-05-23T08:13:35.694Z,20.72
2016-05-23T08:14:35.852Z,20.73
2016-05-23T08:15:35.698Z,20.76
2016-05-23T08:16:36.622Z,20.75
2016-05-23T08:17:35.657Z,20.76
2016-05-23T08:18:35.644Z,20.88
2016-05-23T08:19:35.631Z,20.82
2016-05-23T08:20:35.618Z,20.87
2016-05-23T08:21:35.605Z,20.85
2016-05-23T08:22:35.842Z,20.83
2016-05-23T08:23:35.595Z,21.06
2016-05-23T08:24:35.581Z,21.12
2016-05-23T08:25:35.554Z,21.22
2016-05-23T08:26:35.399Z,21.33
2016-05-23T08:27:35.371Z,21.4
2016-05-23T08:28:35.529Z,21.49
2016-05-23T08:29:35.892Z,21.58
2016-05-23T08:30:35.895Z,21.63
2016-05-23T08:31:35.476Z,21.56
2016-05-23T08:32:35.337Z,21.58
2016-05-23T08:33:35.134Z,21.64
2016-05-23T08:34:35.325Z,21.61
2016-05-23T08:35:35.440Z,21.58
2016-05-23T08:36:35.426Z,21.64
2016-05-23T08:37:35.429Z,21.61
2016-05-23T08:38:36.229Z,21.66
2016-05-23T08:39:35.245Z,21.67
2016-05-23T08:40:35.403Z,21.68
2016-05-23T08:41:35.391Z,21.73
2016-05-23T08:42:35.346Z,21.73
2016-05-23T08:43:35.364Z,21.7
2016-05-23T08:44:35.948Z,21.68
2016-05-23T08:45:35.183Z,21.7
2016-05-23T08:46:35.891Z,21.66
2016-05-23T08:47:35.266Z,21.61
2016-05-23T08:48:35.253Z,21.63
2016-05-23T08:49:35.241Z,21.68
2016-05-23T08:50:35.071Z,21.7
2016-05-23T08:51:35.213Z,21.73
2016-05-23T08:52:35.201Z,21.67
2016-05-23T08:53:35.204Z,21.63
2016-05-23T08:54:35.176Z,21.7
2016-05-23T08:55:35.179Z,21.73
2016-05-23T08:56:34.994Z,21.79
2016-05-23T08:57:35.137Z,21.67
2016-05-23T08:58:35.124Z,21.68
2016-05-23T08:59:35.392Z,21.64
2016-05-23T09:00:35.098Z,21.7
2016-05-23T09:01:35.101Z,21.71
2016-05-23T09:02:35.181Z,21.71
2016-05-23T09:03:35.059Z,21.7
2016-05-23T09:04:35.062Z,21.66
2016-05-23T09:05:34.877Z,21.68
2016-05-23T09:06:35.036Z,21.7
2016-05-23T09:07:35.007Z,21.73
2016-05-23T09:08:34.995Z,21.74
2016-05-23T09:09:34.825Z,21.73
2016-05-23T09:10:35.172Z,21.77
2016-05-23T09:11:34.986Z,21.66
2016-05-23T09:12:34.942Z,21.75
2016-05-23T09:13:34.930Z,21.81
2016-05-23T09:14:34.933Z,21.77
2016-05-23T09:15:34.920Z,21.77
2016-05-23T09:16:34.906Z,21.77
2016-05-23T09:17:34.894Z,21.73
2016-05-23T09:18:35.178Z,21.74
2016-05-23T09:19:34.853Z,21.79
2016-05-23T09:20:34.855Z,21.67
2016-05-23T09:21:34.827Z,21.71
2016-05-23T09:22:34.829Z,21.67
2016-05-23T09:23:34.816Z,21.73
2016-05-23T09:24:34.802Z,21.71
2016-05-23T09:25:34.837Z,21.71
2016-05-23T09:26:35.230Z,21.73
2016-05-23T09:27:36.280Z,21.75
2016-05-23T09:28:34.579Z,21.73
2016-05-23T09:29:34.582Z,21.77
2016-05-23T09:30:34.726Z,21.75
2016-05-23T09:31:34.400Z,21.71
2016-05-23T09:32:36.231Z,21.77
2016-05-23T09:33:34.827Z,21.75
2016-05-23T09:34:34.689Z,21.79
2016-05-23T09:35:34.364Z,21.77
2016-05-23T09:36:34.664Z,21.75
2016-05-23T09:37:35.259Z,21.77
2016-05-23T09:38:34.622Z,21.79
2016-05-23T09:39:34.609Z,21.79
2016-05-23T09:40:34.595Z,21.75
2016-05-23T09:41:34.723Z,21.79
2016-05-23T09:42:34.476Z,21.77
2016-05-23T09:43:34.589Z,21.71
2016-05-23T09:44:34.404Z,21.71
2016-05-23T09:45:34.547Z,21.75
2016-05-23T09:46:34.519Z,21.77
2016-05-23T09:47:36.661Z,21.66
2016-05-23T09:48:34.493Z,21.73
2016-05-23T09:49:34.683Z,21.73
2016-05-23T09:50:34.326Z,21.75
2016-05-23T09:51:34.454Z,21.77
2016-05-23T09:52:36.253Z,21.79
2016-05-23T09:53:34.272Z,21.79
2016-05-23T09:54:34.415Z,21.74
2016-05-23T09:55:34.418Z,21.83
2016-05-23T09:56:34.405Z,21.75
2016-05-23T09:57:36.032Z,21.74
2016-05-23T09:58:34.379Z,21.74
2016-05-23T09:59:34.101Z,21.77
2016-05-23T10:00:34.354Z,21.77
2016-05-23T10:01:34.324Z,21.74
2016-05-23T10:02:36.296Z,21.7
2016-05-23T10:03:34.315Z,21.75
2016-05-23T10:04:34.302Z,21.73
2016-05-23T10:05:34.882Z,21.82
2016-05-23T10:06:34.276Z,21.73
2016-05-23T10:07:36.309Z,21.73
2016-05-23T10:08:34.250Z,21.75
2016-05-23T10:09:34.236Z,21.75
2016-05-23T10:10:34.223Z,21.73
2016-05-23T10:11:34.211Z,21.77
2016-05-23T10:12:34.214Z,21.74
2016-05-23T10:13:34.888Z,21.75
2016-05-23T10:14:34.187Z,21.77
2016-05-23T10:15:34.159Z,21.75
2016-05-23T10:16:34.147Z,21.71
2016-05-23T10:17:33.977Z,21.75
2016-05-23T10:18:33.963Z,21.82
2016-05-23T10:19:34.842Z,21.75
2016-05-23T10:20:33.938Z,21.75
2016-05-23T10:21:34.894Z,21.74
2016-05-23T10:22:34.068Z,21.75
2016-05-23T10:23:34.055Z,21.79
2016-05-23T10:24:34.449Z,21.77
2016-05-23T10:25:34.030Z,21.73
2016-05-23T10:26:34.032Z,21.77
2016-05-23T10:27:34.019Z,21.73
2016-05-23T10:28:33.991Z,21.75
2016-05-23T10:29:37.603Z,21.73
2016-05-23T10:30:33.965Z,21.75
2016-05-23T10:31:33.952Z,21.75
2016-05-23T10:32:33.940Z,21.81
2016-05-23T10:33:33.927Z,21.83
2016-05-23T10:34:33.912Z,21.91
2016-05-23T10:35:33.900Z,21.74
2016-05-23T10:36:33.887Z,21.82
2016-05-23T10:37:34.124Z,21.85
2016-05-23T10:38:33.876Z,21.89
2016-05-23T10:39:35.692Z,21.86
2016-05-23T10:40:33.836Z,21.81
2016-05-23T10:41:33.839Z,21.85
2016-05-23T10:42:33.825Z,21.82
2016-05-23T10:43:33.828Z,21.93
2016-05-23T10:44:35.658Z,21.89
2016-05-23T10:45:34.192Z,21.89
2016-05-23T10:46:33.773Z,21.81
2016-05-23T10:47:33.761Z,21.83
2016-05-23T10:48:33.591Z,21.83
2016-05-23T10:49:34.797Z,21.89
2016-05-23T10:50:33.722Z,21.83
2016-05-23T10:51:33.709Z,21.83
2016-05-23T10:52:33.789Z,21.89
2016-05-23T10:53:34.167Z,21.83
2016-05-23T10:54:33.670Z,21.94
2016-05-23T10:55:33.658Z,21.94
2016-05-23T10:56:33.644Z,21.91
2016-05-23T10:57:33.631Z,21.96
2016-05-23T10:58:33.462Z,21.93
2016-05-23T10:59:33.621Z,22.04
2016-05-23T11:00:33.843Z,21.93
2016-05-23T11:01:33.579Z,21.96
2016-05-23T11:02:33.410Z,21.99
2016-05-23T11:03:33.413Z,21.94
2016-05-23T11:04:33.541Z,21.89
2016-05-23T11:05:33.528Z,21.91
2016-05-23T11:06:33.515Z,21.91
2016-05-23T11:07:33.502Z,21.94
2016-05-23T11:08:33.787Z,22.01
2016-05-23T11:09:33.476Z,21.91
2016-05-23T11:10:33.479Z,21.75
2016-05-23T11:11:33.465Z,21.67
2016-05-23T11:12:33.437Z,21.63
2016-05-23T11:13:33.487Z,21.55
2016-05-23T11:14:33.114Z,21.45
2016-05-23T11:15:33.258Z,21.22
2016-05-23T11:16:33.933Z,21.16
2016-05-23T11:17:33.373Z,21.22
2016-05-23T11:18:33.376Z,21.24
2016-05-23T11:19:33.362Z,21.21
2016-05-23T11:20:33.350Z,21.22
2016-05-23T11:21:33.321Z,21.28
2016-05-23T11:22:33.324Z,21.18
2016-05-23T11:23:33.311Z,21.21
2016-05-23T11:24:33.844Z,21.24
2016-05-23T11:25:33.285Z,21.22
2016-05-23T11:26:33.256Z,21.21
2016-05-23T11:27:33.259Z,21.13
2016-05-23T11:28:33.246Z,21.12
2016-05-23T11:29:33.561Z,21.16
2016-05-23T11:30:33.221Z,21.11
2016-05-23T11:31:33.191Z,21.05
2016-05-23T11:32:33.897Z,21.03
2016-05-23T11:33:33.182Z,20.98
2016-05-23T11:34:33.169Z,20.97
2016-05-23T11:35:33.155Z,20.96
2016-05-23T11:36:33.143Z,20.97
2016-05-23T11:37:33.130Z,20.98
2016-05-23T11:38:33.117Z,20.97
2016-05-23T11:39:33.104Z,21.05
2016-05-23T11:40:33.137Z,21.06
2016-05-23T11:41:33.078Z,20.97
2016-05-23T11:42:33.081Z,21.01
2016-05-23T11:43:33.067Z,21.05
2016-05-23T11:44:33.054Z,21
2016-05-23T11:45:33.026Z,21.03
2016-05-23T11:46:33.013Z,21.03
2016-05-23T11:47:32.844Z,21.01
2016-05-23T11:48:33.940Z,21.09
2016-05-23T11:49:32.974Z,21.08
2016-05-23T11:50:32.961Z,21.08
2016-05-23T11:51:32.948Z,20.97
2016-05-23T11:52:32.936Z,20.97
2016-05-23T11:53:32.908Z,20.98
2016-05-23T11:54:32.925Z,21.01
2016-05-23T11:55:32.897Z,20.98
2016-05-23T11:56:33.133Z,20.93
2016-05-23T11:57:32.886Z,21
2016-05-23T11:58:32.858Z,20.82
2016-05-23T11:59:33.158Z,20.94
2016-05-23T12:00:32.817Z,21.15
2016-05-23T12:01:32.662Z,21.15
2016-05-23T12:02:32.821Z,21.34
2016-05-23T12:03:32.793Z,21.52
2016-05-23T12:04:33.124Z,21.55
2016-05-23T12:05:32.768Z,21.67
2016-05-23T12:06:32.771Z,21.79
2016-05-23T12:07:32.585Z,21.75
2016-05-23T12:08:32.729Z,21.94
2016-05-23T12:09:32.732Z,21.99
2016-05-23T12:10:32.704Z,22.12
2016-05-23T12:11:32.721Z,22.3
2016-05-23T12:12:33.129Z,22.35
2016-05-23T12:13:32.664Z,22.36
2016-05-23T12:14:32.760Z,22.14
2016-05-23T12:15:32.482Z,22.15
2016-05-23T12:16:32.625Z,22.2
2016-05-23T12:17:32.628Z,22.14
2016-05-23T12:18:32.599Z,22.15
2016-05-23T12:19:32.586Z,22.19
2016-05-23T12:20:32.573Z,22.05
2016-05-23T12:21:32.561Z,21.85
2016-05-23T12:22:32.407Z,21.75
2016-05-23T12:23:32.550Z,21.68
2016-05-23T12:24:32.522Z,21.53
2016-05-23T12:25:32.508Z,21.55
2016-05-23T12:26:32.511Z,21.46
2016-05-23T12:27:32.499Z,21.52
2016-05-23T12:28:32.470Z,21.31
2016-05-23T12:29:32.738Z,21.26
2016-05-23T12:30:32.444Z,21.24
2016-05-23T12:31:32.431Z,21.24
2016-05-23T12:32:32.433Z,21.13
2016-05-23T12:33:32.421Z,21
2016-05-23T12:34:32.438Z,20.96
2016-05-23T12:35:32.395Z,20.93
2016-05-23T12:36:32.444Z,21.01
2016-05-23T12:37:32.463Z,20.87
2016-05-23T12:38:32.450Z,21.01
2016-05-23T12:39:32.359Z,20.98
2016-05-23T12:40:32.345Z,21.03
2016-05-23T12:41:32.317Z,20.98
2016-05-23T12:42:32.304Z,21.03
2016-05-23T12:43:32.135Z,21.11
2016-05-23T12:44:32.529Z,21.12
2016-05-23T12:45:32.125Z,21.22
2016-05-23T12:46:32.253Z,21.15
2016-05-23T12:47:32.084Z,21.26
2016-05-23T12:48:32.227Z,21.09
2016-05-23T12:49:32.339Z,21.16
2016-05-23T12:50:32.247Z,21.05
2016-05-23T12:51:32.189Z,21.06
2016-05-23T12:52:32.425Z,21.09
2016-05-23T12:53:34.115Z,21.22
2016-05-23T12:54:31.837Z,21.15
2016-05-23T12:55:32.136Z,21.13